Time;durP1;ratioP1;P1;durP2;ratioP2;P2;SDS_P1;SDS_P2;PMS_P1;PMS_P2;Temp;Humidity;BMP_temperature;BMP_pressure;BME280_temperature;BME280_humidity;BME280_pressure;Samples;Min_cycle;Max_cycle;Signal;HPM_P1;HPM_P2
2022/09/07 00:01:42;;;;;;;4.35;2.10;;;18.30;99.90;;;;;;5035701;28;20271;-85
2022/09/07 00:04:09;;;;;;;6.10;2.45;;;18.30;99.90;;;;;;5034632;28;20223;-85
2022/09/07 00:06:38;;;;;;;5.47;2.70;;;18.30;99.90;;;;;;5034926;28;20292;-84
2022/09/07 00:09:05;;;;;;;4.25;2.10;;;18.30;99.90;;;;;;5034474;28;20205;-84
2022/09/07 00:11:33;;;;;;;4.65;2.10;;;18.30;99.90;;;;;;5034518;28;20244;-85
2022/09/07 00:14:00;;;;;;;4.30;2.78;;;18.30;99.90;;;;;;5034559;28;20230;-84
2022/09/07 00:16:29;;;;;;;9.45;2.45;;;18.20;99.90;;;;;;5034104;28;20210;-85
2022/09/07 00:18:57;;;;;;;3.10;2.15;;;18.20;99.90;;;;;;5034262;28;20249;-83
2022/09/07 00:21:24;;;;;;;7.55;2.20;;;18.10;99.90;;;;;;5034816;28;20598;-83
2022/09/07 00:23:55;;;;;;;3.60;1.90;;;18.10;99.90;;;;;;5034056;28;20226;-84
2022/09/07 00:26:24;;;;;;;6.30;2.17;;;18.00;99.90;;;;;;5033996;28;20501;-84
2022/09/07 00:28:52;;;;;;;5.38;2.15;;;18.00;99.90;;;;;;5034220;28;20285;-83
2022/09/07 00:31:22;;;;;;;4.95;2.08;;;18.00;99.90;;;;;;5034649;28;20225;-84
2022/09/07 00:33:50;;;;;;;4.78;2.40;;;17.90;99.90;;;;;;5034121;28;20629;-83
2022/09/07 00:36:18;;;;;;;5.00;2.30;;;17.90;99.90;;;;;;5034003;28;20202;-85
2022/09/07 00:38:46;;;;;;;9.02;2.60;;;17.90;99.90;;;;;;5034103;28;20191;-84
2022/09/07 00:41:15;;;;;;;7.05;2.78;;;17.90;99.90;;;;;;5033894;28;20198;-84
2022/09/07 00:43:44;;;;;;;7.85;3.17;;;17.90;99.90;;;;;;5033650;28;20222;-84
2022/09/07 00:46:14;;;;;;;6.65;2.72;;;17.90;99.90;;;;;;5034354;28;20187;-83
2022/09/07 00:48:45;;;;;;;6.57;2.85;;;17.90;99.90;;;;;;5034252;28;20294;-83
2022/09/07 00:51:17;;;;;;;4.95;2.67;;;17.90;99.90;;;;;;5034187;28;20187;-83
2022/09/07 00:53:52;;;;;;;6.93;2.33;;;17.90;99.90;;;;;;5033857;28;20300;-80
2022/09/07 00:56:23;;;;;;;6.60;2.67;;;17.90;99.90;;;;;;5031799;28;20202;-82
2022/09/07 00:58:51;;;;;;;5.43;2.65;;;17.90;99.90;;;;;;5032651;28;20205;-84
2022/09/07 01:01:19;;;;;;;4.20;2.38;;;17.80;99.90;;;;;;5034131;28;20259;-85
2022/09/07 01:03:49;;;;;;;6.57;2.97;;;17.80;99.90;;;;;;5031770;28;20615;-84
2022/09/07 01:06:18;;;;;;;5.72;2.35;;;17.80;99.90;;;;;;5033781;28;20293;-83
2022/09/07 01:08:48;;;;;;;4.60;2.20;;;17.80;99.90;;;;;;5032961;28;20209;-84
2022/09/07 01:11:16;;;;;;;6.65;2.67;;;17.70;99.90;;;;;;5032948;28;20209;-81
2022/09/07 01:13:46;;;;;;;6.78;2.42;;;17.70;99.90;;;;;;5033368;28;20545;-82
2022/09/07 01:16:24;;;;;;;4.88;2.00;;;17.60;99.90;;;;;;5064245;22;20236;-81
2022/09/07 01:19:04;;;;;;;4.20;2.10;;;17.60;99.90;;;;;;5072269;28;20580;-80
2022/09/07 01:21:47;;;;;;;3.28;1.85;;;17.60;99.90;;;;;;5073303;28;20251;-82
2022/09/07 01:24:41;;;;;;;4.60;2.20;;;17.60;99.90;;;;;;5072822;28;20291;-81
2022/09/07 01:27:52;;;;;;;5.25;1.77;;;17.60;99.90;;;;;;5072028;28;20209;-81
2022/09/07 01:30:23;;;;;;;3.05;1.80;;;17.60;99.90;;;;;;5030040;28;20301;-81
2022/09/07 01:33:05;;;;;;;2.70;1.65;;;17.50;99.90;;;;;;5066540;28;20213;-82
2022/09/07 01:35:39;;;;;;;4.13;1.95;;;17.50;99.90;;;;;;5072774;28;20581;-81
2022/09/07 01:38:15;;;;;;;2.95;1.73;;;17.50;99.90;;;;;;5072172;28;20196;-81
2022/09/07 01:40:48;;;;;;;1.90;1.42;;;17.50;99.90;;;;;;5071819;28;20437;-82
2022/09/07 01:43:21;;;;;;;2.92;1.80;;;17.50;99.90;;;;;;5072932;28;20194;-82
2022/09/07 01:45:54;;;;;;;4.85;2.13;;;17.50;99.90;;;;;;5064281;28;20190;-81
2022/09/07 01:48:23;;;;;;;3.60;2.00;;;17.50;99.90;;;;;;5056418;28;20234;-81
2022/09/07 01:50:53;;;;;;;5.00;2.00;;;17.60;99.90;;;;;;5056673;28;20584;-81
2022/09/07 01:53:27;;;;;;;3.10;1.90;;;17.60;99.90;;;;;;5035204;28;20289;-81
2022/09/07 01:55:58;;;;;;;3.35;1.95;;;17.60;99.90;;;;;;5052112;28;20276;-81
2022/09/07 01:58:28;;;;;;;3.40;1.65;;;17.60;99.90;;;;;;5059086;22;20244;-81
2022/09/07 02:01:03;;;;;;;3.35;2.25;;;17.60;99.90;;;;;;5051968;28;20456;-81
2022/09/07 02:03:36;;;;;;;2.80;1.90;;;17.70;99.90;;;;;;5052240;28;20273;-79
2022/09/07 02:06:10;;;;;;;3.90;1.63;;;17.70;99.90;;;;;;5051756;28;20544;-81
2022/09/07 02:08:43;;;;;;;2.42;1.60;;;17.60;99.90;;;;;;5052834;28;20212;-80
2022/09/07 02:11:14;;;;;;;2.97;1.27;;;17.60;99.90;;;;;;5055059;28;20558;-81
2022/09/07 02:13:45;;;;;;;3.53;1.23;;;17.60;99.90;;;;;;5053535;28;20506;-81
2022/09/07 02:16:16;;;;;;;2.67;1.63;;;17.60;99.90;;;;;;5055816;28;20186;-81
2022/09/07 02:18:46;;;;;;;1.70;1.10;;;17.60;99.90;;;;;;5054894;28;20757;-82
2022/09/07 02:21:18;;;;;;;1.63;1.20;;;17.60;99.90;;;;;;5054799;28;20639;-82
2022/09/07 02:23:52;;;;;;;3.35;1.50;;;17.60;99.90;;;;;;5054755;28;20210;-81
2022/09/07 02:26:22;;;;;;;1.98;1.30;;;17.60;99.90;;;;;;5054260;28;20236;-81
2022/09/07 02:28:49;;;;;;;2.20;1.30;;;17.60;99.90;;;;;;5054838;28;20516;-82
2022/09/07 02:31:18;;;;;;;1.50;1.17;;;17.50;99.90;;;;;;5054469;28;20224;-82
2022/09/07 02:33:46;;;;;;;1.60;1.50;;;17.60;99.90;;;;;;5054361;28;20609;-81
2022/09/07 02:36:16;;;;;;;1.10;1.02;;;17.50;99.90;;;;;;5054459;28;20242;-81
2022/09/07 02:38:43;;;;;;;2.08;1.50;;;17.50;99.90;;;;;;5054658;28;20500;-82
2022/09/07 02:41:32;;;;;;;1.80;1.25;;;17.50;99.90;;;;;;5054275;28;20249;-82
2022/09/07 02:44:00;;;;;;;2.28;1.38;;;17.50;99.90;;;;;;5054347;28;20630;-83
2022/09/07 02:46:41;;;;;;;2.05;1.38;;;17.50;99.90;;;;;;5054559;28;20192;-83
2022/09/07 02:49:20;;;;;;;5.28;2.22;;;17.50;99.90;;;;;;5054045;28;20214;-81
2022/09/07 02:52:00;;;;;;;2.50;1.77;;;17.50;99.90;;;;;;5055912;28;20190;-83
2022/09/07 02:54:39;;;;;;;3.95;2.20;;;17.50;99.90;;;;;;5055777;28;20193;-83
2022/09/07 02:57:14;;;;;;;5.30;2.38;;;17.50;99.90;;;;;;5055963;28;20193;-84
2022/09/07 02:59:51;;;;;;;3.20;2.00;;;17.50;99.90;;;;;;5056222;28;20190;-83
2022/09/07 03:02:28;;;;;;;2.38;1.80;;;17.40;99.90;;;;;;5036890;28;20198;-83
2022/09/07 03:05:01;;;;;;;2.63;1.60;;;17.40;99.90;;;;;;5036007;28;20206;-83
2022/09/07 03:07:32;;;;;;;2.00;1.52;;;17.40;99.90;;;;;;5035691;28;20206;-84
2022/09/07 03:10:02;;;;;;;2.22;1.60;;;17.40;99.90;;;;;;5052927;28;20260;-84
2022/09/07 03:12:40;;;;;;;2.70;1.60;;;17.40;99.90;;;;;;5055131;28;20198;-82
2022/09/07 03:15:10;;;;;;;3.38;1.70;;;17.40;99.90;;;;;;5055595;28;20200;-84
2022/09/07 03:17:39;;;;;;;2.65;1.50;;;17.40;99.90;;;;;;5055212;28;20186;-84
2022/09/07 03:20:06;;;;;;;3.03;1.45;;;17.40;99.90;;;;;;5054884;28;20204;-84
2022/09/07 03:22:33;;;;;;;1.88;1.52;;;17.40;99.90;;;;;;5054348;28;20293;-84
2022/09/07 03:25:03;;;;;;;1.92;1.40;;;17.40;99.90;;;;;;5055402;28;20213;-83
2022/09/07 03:27:30;;;;;;;1.65;1.55;;;17.30;99.90;;;;;;5055281;28;20240;-83
2022/09/07 03:29:57;;;;;;;2.55;1.70;;;17.30;99.90;;;;;;5054635;28;20224;-82
2022/09/07 03:32:24;;;;;;;2.42;1.52;;;17.30;99.90;;;;;;5055203;28;20208;-84
2022/09/07 03:34:53;;;;;;;4.20;1.73;;;17.30;99.90;;;;;;5054343;28;20205;-83
2022/09/07 03:37:20;;;;;;;1.50;1.40;;;17.20;99.90;;;;;;5054424;28;20202;-84
2022/09/07 03:39:46;;;;;;;2.97;1.58;;;17.20;99.90;;;;;;5054631;28;20205;-83
2022/09/07 03:42:13;;;;;;;3.70;1.90;;;17.20;99.90;;;;;;5054186;28;20866;-84
2022/09/07 03:44:40;;;;;;;3.53;1.67;;;17.20;99.90;;;;;;5053890;28;20220;-83
2022/09/07 03:47:07;;;;;;;2.10;1.90;;;17.20;99.90;;;;;;5053823;28;20205;-83
2022/09/07 03:49:34;;;;;;;3.00;1.70;;;17.20;99.90;;;;;;5054138;28;20212;-83
2022/09/07 03:52:03;;;;;;;3.83;1.67;;;17.10;99.90;;;;;;5053007;28;20606;-83
2022/09/07 03:54:30;;;;;;;3.42;1.40;;;17.10;99.90;;;;;;5053753;28;20202;-82
2022/09/07 03:56:57;;;;;;;2.35;1.60;;;17.10;99.90;;;;;;5053822;28;20255;-83
2022/09/07 03:59:24;;;;;;;1.80;1.60;;;17.00;99.90;;;;;;5053731;28;20761;-82
2022/09/07 04:01:51;;;;;;;2.08;1.50;;;17.00;99.90;;;;;;5053596;28;20294;-83
2022/09/07 04:04:18;;;;;;;2.15;1.60;;;17.00;99.90;;;;;;5053688;28;20198;-83
2022/09/07 04:06:45;;;;;;;3.95;2.10;;;17.00;99.90;;;;;;5052358;28;20212;-82
2022/09/07 04:09:14;;;;;;;3.08;2.15;;;17.00;99.90;;;;;;5054166;28;20200;-82
2022/09/07 04:11:41;;;;;;;5.35;2.05;;;17.00;99.90;;;;;;5053264;28;20719;-82
2022/09/07 04:14:08;;;;;;;5.68;2.33;;;17.00;99.90;;;;;;5036154;28;20198;-83
2022/09/07 04:16:35;;;;;;;3.45;2.83;;;16.90;99.90;;;;;;5052776;28;20902;-83
2022/09/07 04:19:02;;;;;;;2.88;2.50;;;16.90;99.90;;;;;;5052227;28;20194;-81
2022/09/07 04:21:31;;;;;;;4.40;2.60;;;16.90;99.90;;;;;;5054025;28;20194;-83
2022/09/07 04:23:58;;;;;;;5.15;3.70;;;16.90;99.90;;;;;;5053280;28;20206;-82
2022/09/07 04:26:28;;;;;;;5.40;2.92;;;16.90;99.90;;;;;;5052493;28;20248;-82
2022/09/07 04:28:56;;;;;;;4.05;2.92;;;16.90;99.90;;;;;;5053464;28;20597;-83
2022/09/07 04:31:24;;;;;;;4.50;2.70;;;16.90;99.90;;;;;;5052551;28;20225;-82
2022/09/07 04:33:54;;;;;;;3.50;2.50;;;16.80;99.90;;;;;;5052753;28;20202;-82
2022/09/07 04:36:23;;;;;;;2.60;2.40;;;16.80;99.90;;;;;;5053453;28;20200;-82
2022/09/07 04:38:54;;;;;;;2.88;2.63;;;16.80;99.90;;;;;;5052593;28;20197;-82
2022/09/07 04:41:21;;;;;;;3.80;3.47;;;16.80;99.90;;;;;;5052371;28;20233;-82
2022/09/07 04:43:53;;;;;;;5.13;2.85;;;16.80;99.90;;;;;;5053703;28;20220;-81
2022/09/07 04:46:22;;;;;;;3.33;2.95;;;16.80;99.90;;;;;;5052398;28;20229;-82
2022/09/07 04:48:50;;;;;;;3.20;2.50;;;16.80;99.90;;;;;;5052616;28;20186;-82
2022/09/07 04:51:17;;;;;;;3.08;2.67;;;16.80;99.90;;;;;;5052970;28;20206;-83
2022/09/07 04:53:47;;;;;;;2.88;2.42;;;16.70;99.90;;;;;;5052447;28;20213;-81
2022/09/07 04:56:14;;;;;;;2.63;2.15;;;16.70;99.90;;;;;;5052718;28;20205;-83
2022/09/07 04:58:40;;;;;;;4.45;2.63;;;16.70;99.90;;;;;;5053006;28;20233;-83
2022/09/07 05:01:09;;;;;;;6.80;3.00;;;16.70;99.90;;;;;;5051441;28;20248;-83
2022/09/07 05:03:38;;;;;;;4.85;2.90;;;16.70;99.90;;;;;;5051924;28;20198;-84
2022/09/07 05:06:06;;;;;;;6.25;2.92;;;16.70;99.90;;;;;;5058283;28;20225;-82
2022/09/07 05:08:37;;;;;;;6.45;3.10;;;16.70;99.90;;;;;;5053570;28;20626;-84
2022/09/07 05:11:04;;;;;;;7.03;3.38;;;16.60;99.90;;;;;;5053676;28;20197;-83
2022/09/07 05:13:31;;;;;;;5.70;3.50;;;16.60;99.90;;;;;;5053255;28;20297;-84
2022/09/07 05:15:58;;;;;;;4.57;3.90;;;16.70;99.90;;;;;;5052797;28;20228;-84
2022/09/07 05:18:27;;;;;;;4.68;3.92;;;16.60;99.90;;;;;;5053093;28;20198;-84
2022/09/07 05:20:54;;;;;;;6.53;3.90;;;16.60;99.90;;;;;;5035759;28;20264;-84
2022/09/07 05:23:23;;;;;;;4.13;3.83;;;16.60;99.90;;;;;;5052671;28;20201;-83
2022/09/07 05:25:50;;;;;;;4.90;3.67;;;16.60;99.90;;;;;;5052658;28;20638;-83
2022/09/07 05:28:16;;;;;;;5.68;4.28;;;16.60;99.90;;;;;;5052743;28;20682;-83
2022/09/07 05:30:43;;;;;;;5.15;4.00;;;16.70;99.90;;;;;;5052717;28;20217;-84
2022/09/07 05:33:11;;;;;;;5.65;3.90;;;16.60;99.90;;;;;;5053190;28;20205;-83
2022/09/07 05:35:39;;;;;;;5.85;4.82;;;16.70;99.90;;;;;;5052982;28;20216;-85
2022/09/07 05:38:06;;;;;;;4.95;4.35;;;16.70;99.90;;;;;;5052946;28;20266;-83
2022/09/07 05:40:33;;;;;;;5.10;4.60;;;16.60;99.90;;;;;;5052506;28;20285;-83
2022/09/07 05:43:00;;;;;;;5.15;3.80;;;16.70;99.90;;;;;;5053718;28;20285;-83
2022/09/07 05:45:27;;;;;;;4.00;3.63;;;16.70;99.90;;;;;;5056804;28;20698;-82
2022/09/07 05:47:55;;;;;;;4.53;4.10;;;16.70;99.90;;;;;;5055753;28;20201;-83
2022/09/07 05:50:22;;;;;;;5.80;4.00;;;16.70;99.90;;;;;;5056939;28;20197;-84
2022/09/07 05:52:50;;;;;;;4.20;3.60;;;16.70;99.90;;;;;;5056025;28;20209;-82
2022/09/07 05:55:17;;;;;;;5.10;3.92;;;16.70;99.90;;;;;;5055497;28;20583;-84
2022/09/07 05:57:44;;;;;;;4.35;3.70;;;16.70;99.90;;;;;;5055029;28;20313;-82
2022/09/07 06:00:13;;;;;;;5.25;3.83;;;16.70;99.90;;;;;;5056668;28;20198;-84
2022/09/07 06:02:40;;;;;;;3.80;3.50;;;16.80;99.90;;;;;;5055635;28;20224;-84
2022/09/07 06:05:09;;;;;;;4.18;3.75;;;16.70;99.90;;;;;;5055540;28;20226;-84
2022/09/07 06:07:37;;;;;;;3.53;3.22;;;16.80;99.90;;;;;;5056506;28;20300;-82
2022/09/07 06:10:07;;;;;;;5.93;3.20;;;16.80;99.90;;;;;;5055351;28;20504;-84
2022/09/07 06:12:34;;;;;;;3.60;3.30;;;16.80;99.90;;;;;;5055875;28;20289;-83
2022/09/07 06:15:01;;;;;;;3.78;3.08;;;16.80;99.90;;;;;;5055916;28;20198;-84
2022/09/07 06:17:28;;;;;;;5.13;3.80;;;16.80;99.90;;;;;;5055253;28;20263;-83
2022/09/07 06:19:55;;;;;;;4.40;3.20;;;16.80;99.90;;;;;;5063950;22;20206;-84
2022/09/07 06:22:22;;;;;;;3.45;3.10;;;16.80;99.90;;;;;;5035464;28;20238;-85
2022/09/07 06:24:49;;;;;;;3.53;3.22;;;16.80;99.90;;;;;;5034281;28;20283;-83
2022/09/07 06:27:17;;;;;;;4.78;2.95;;;16.80;99.90;;;;;;5034624;28;20198;-82
2022/09/07 06:29:44;;;;;;;4.32;3.17;;;16.80;99.90;;;;;;5030532;28;20227;-83
2022/09/07 06:32:11;;;;;;;4.85;3.47;;;16.90;99.90;;;;;;5004151;28;20223;-82
2022/09/07 06:34:38;;;;;;;4.18;3.22;;;16.90;99.90;;;;;;5012447;28;21115;-82
2022/09/07 06:37:05;;;;;;;5.57;3.25;;;16.90;99.90;;;;;;5015218;28;20241;-82
2022/09/07 06:39:33;;;;;;;3.83;3.47;;;16.90;99.90;;;;;;5013239;28;20204;-82
2022/09/07 06:42:03;;;;;;;3.17;2.70;;;16.90;99.90;;;;;;4996384;28;20204;-82
2022/09/07 06:44:32;;;;;;;4.45;3.15;;;16.90;99.90;;;;;;4995289;28;20196;-82
2022/09/07 06:46:59;;;;;;;4.03;3.63;;;17.00;99.90;;;;;;4994418;28;20238;-81
2022/09/07 06:49:26;;;;;;;4.20;3.55;;;17.00;99.90;;;;;;4999515;28;20229;-81
2022/09/07 06:51:53;;;;;;;4.05;3.42;;;17.00;99.90;;;;;;5014939;28;20305;-82
2022/09/07 06:54:20;;;;;;;6.00;3.78;;;17.10;99.90;;;;;;5013927;28;20195;-82
2022/09/07 06:56:47;;;;;;;3.72;3.35;;;17.10;99.90;;;;;;5014218;28;20504;-84
2022/09/07 06:59:13;;;;;;;5.47;3.70;;;17.10;99.90;;;;;;5014129;28;20211;-82
2022/09/07 07:01:42;;;;;;;4.57;3.85;;;17.20;99.90;;;;;;5005674;28;20210;-82
2022/09/07 07:04:08;;;;;;;5.55;3.92;;;17.20;99.90;;;;;;5004129;28;20211;-81
2022/09/07 07:06:36;;;;;;;4.40;3.63;;;17.30;99.90;;;;;;5000418;28;20220;-82
2022/09/07 07:09:05;;;;;;;4.93;3.65;;;17.30;99.90;;;;;;5014380;28;20484;-83
2022/09/07 07:11:32;;;;;;;5.50;3.67;;;17.30;99.90;;;;;;5010163;28;20208;-82
2022/09/07 07:13:59;;;;;;;4.85;3.63;;;17.30;99.90;;;;;;4994825;28;20564;-83
2022/09/07 07:16:26;;;;;;;3.70;3.38;;;17.40;99.90;;;;;;4999398;28;20322;-83
2022/09/07 07:18:56;;;;;;;5.03;3.10;;;17.40;99.90;;;;;;5013083;28;20202;-82
2022/09/07 07:21:23;;;;;;;4.22;3.83;;;17.50;99.90;;;;;;5012943;28;20227;-81
2022/09/07 07:23:51;;;;;;;3.60;3.30;;;17.50;99.90;;;;;;5013839;28;20215;-82
2022/09/07 07:26:21;;;;;;;4.22;3.83;;;17.50;99.90;;;;;;5013361;28;20220;-81
2022/09/07 07:28:49;;;;;;;3.55;3.25;;;17.60;99.90;;;;;;5012707;28;20219;-81
2022/09/07 07:31:18;;;;;;;5.07;3.22;;;17.60;99.90;;;;;;5013377;28;20220;-81
2022/09/07 07:33:46;;;;;;;3.25;2.78;;;17.60;99.90;;;;;;5003317;28;20204;-82
2022/09/07 07:36:16;;;;;;;4.43;3.15;;;17.60;99.90;;;;;;4993990;28;20344;-82
2022/09/07 07:38:46;;;;;;;3.60;3.30;;;17.70;99.90;;;;;;4994110;28;20204;-81
2022/09/07 07:41:15;;;;;;;3.63;3.28;;;17.70;99.90;;;;;;4993898;28;20196;-82
2022/09/07 07:43:42;;;;;;;3.63;3.28;;;17.80;99.90;;;;;;4994220;28;20287;-81
2022/09/07 07:46:12;;;;;;;5.47;3.88;;;17.80;99.90;;;;;;4993786;28;20224;-81
2022/09/07 07:48:39;;;;;;;5.15;3.22;;;17.80;99.90;;;;;;4994484;28;20242;-82
2022/09/07 07:51:09;;;;;;;4.07;3.40;;;17.80;99.90;;;;;;4993417;28;20210;-81
2022/09/07 07:53:39;;;;;;;5.22;3.90;;;17.90;99.90;;;;;;5001810;28;20212;-83
2022/09/07 07:56:07;;;;;;;5.70;3.88;;;17.90;99.90;;;;;;5013457;28;20623;-83
2022/09/07 07:58:36;;;;;;;4.35;3.55;;;17.90;99.90;;;;;;5061428;22;20237;-82
2022/09/07 08:01:05;;;;;;;5.30;4.43;;;18.00;99.90;;;;;;5072341;28;20309;-82
2022/09/07 08:03:35;;;;;;;4.90;3.85;;;18.00;99.90;;;;;;5072592;28;20197;-81
2022/09/07 08:06:06;;;;;;;3.97;3.20;;;18.10;99.90;;;;;;5072366;28;20513;-82
2022/09/07 08:08:35;;;;;;;5.47;2.97;;;18.20;99.90;;;;;;5073119;28;20197;-81
2022/09/07 08:11:07;;;;;;;4.40;3.63;;;18.40;99.90;;;;;;5071735;28;20213;-82
2022/09/07 08:13:35;;;;;;;6.68;4.18;;;18.60;99.90;;;;;;5069891;28;20217;-81
2022/09/07 08:16:04;;;;;;;4.13;3.60;;;18.80;99.90;;;;;;5052908;28;20196;-83
2022/09/07 08:18:32;;;;;;;4.65;3.85;;;19.00;99.90;;;;;;5052467;28;20340;-83
2022/09/07 08:21:01;;;;;;;4.45;3.83;;;19.20;99.90;;;;;;5052623;28;20211;-81
2022/09/07 08:23:28;;;;;;;3.70;3.38;;;19.50;99.90;;;;;;5064013;28;20220;-83
2022/09/07 08:25:57;;;;;;;4.18;3.78;;;19.70;99.90;;;;;;5072200;28;20228;-83
2022/09/07 08:28:26;;;;;;;4.40;3.17;;;19.90;99.90;;;;;;5072086;28;20201;-82
2022/09/07 08:30:53;;;;;;;5.15;3.13;;;20.20;99.90;;;;;;5072545;28;20221;-82
2022/09/07 08:33:20;;;;;;;5.65;3.00;;;20.40;99.90;;;;;;5071105;28;20201;-82
2022/09/07 08:36:00;;;;;;;6.05;2.95;;;20.60;99.90;;;;;;5071996;28;20217;-84
2022/09/07 08:38:28;;;;;;;5.60;3.17;;;20.80;99.90;;;;;;5072224;28;20196;-82
2022/09/07 08:40:56;;;;;;;6.63;3.22;;;21.00;99.90;;;;;;5072158;28;20300;-82
2022/09/07 08:43:42;;;;;;;4.90;3.47;;;21.20;99.90;;;;;;5072233;28;20228;-82
2022/09/07 08:46:19;;;;;;;4.30;3.50;;;21.40;99.90;;;;;;5071968;28;20708;-83
2022/09/07 08:48:47;;;;;;;3.83;3.42;;;21.50;99.90;;;;;;5071459;28;20201;-82
2022/09/07 08:51:20;;;;;;;4.70;4.30;;;21.70;99.90;;;;;;5071843;28;20197;-80
2022/09/07 08:53:49;;;;;;;4.65;4.20;;;21.90;99.90;;;;;;5070678;28;20229;-81
2022/09/07 08:56:22;;;;;;;4.70;4.00;;;22.00;99.90;;;;;;5071630;28;20219;-80
2022/09/07 08:58:53;;;;;;;4.63;4.07;;;22.10;99.90;;;;;;5071580;28;20637;-82
2022/09/07 09:01:26;;;;;;;5.40;4.13;;;22.30;99.90;;;;;;5070988;28;20764;-80
2022/09/07 09:03:53;;;;;;;3.72;3.42;;;22.40;99.90;;;;;;5070276;28;20205;-80
2022/09/07 09:06:27;;;;;;;7.32;3.72;;;22.60;99.90;;;;;;5071511;28;20217;-80
2022/09/07 09:09:08;;;;;;;4.50;4.07;;;22.80;99.90;;;;;;5070706;28;20254;-80
2022/09/07 09:11:46;;;;;;;6.10;4.10;;;22.90;99.90;;;;;;5071439;28;20236;-80
2022/09/07 09:14:22;;;;;;;5.20;4.70;;;23.00;99.90;;;;;;5071394;28;20288;-80
2022/09/07 09:16:54;;;;;;;6.20;4.38;;;23.00;99.90;;;;;;5072249;28;20201;-80
2022/09/07 09:19:46;;;;;;;4.97;3.70;;;23.10;99.90;;;;;;5075970;28;20197;-80
2022/09/07 09:22:17;;;;;;;4.20;3.80;;;23.10;99.90;;;;;;5075275;28;20192;-81
2022/09/07 09:24:47;;;;;;;6.55;3.83;;;23.30;99.90;;;;;;5074875;28;20205;-80
2022/09/07 09:27:14;;;;;;;4.88;3.10;;;23.40;99.90;;;;;;5075442;28;20614;-81
2022/09/07 09:29:43;;;;;;;4.28;3.85;;;23.50;99.90;;;;;;5073959;28;20535;-79
2022/09/07 09:32:33;;;;;;;4.20;3.58;;;23.60;99.90;;;;;;5075119;28;20280;-81
2022/09/07 09:35:12;;;;;;;7.13;3.97;;;23.70;99.90;;;;;;5075025;28;20192;-80
2022/09/07 09:37:41;;;;;;;5.28;4.40;;;23.60;99.90;;;;;;5074645;28;20224;-81
2022/09/07 09:40:19;;;;;;;4.07;3.53;;;23.50;99.90;;;;;;5074972;28;20193;-80
2022/09/07 09:42:47;;;;;;;3.97;3.58;;;23.50;99.90;;;;;;5075265;28;20201;-82
2022/09/07 09:45:19;;;;;;;5.00;3.03;;;23.60;99.90;;;;;;5075204;28;20217;-80
2022/09/07 09:47:50;;;;;;;4.70;3.30;;;23.60;99.90;;;;;;5074779;28;20668;-78
2022/09/07 09:50:22;;;;;;;4.95;3.22;;;23.70;99.90;;;;;;5074104;28;20198;-82
2022/09/07 09:52:51;;;;;;;5.30;3.20;;;23.60;99.90;;;;;;5075373;28;20205;-83
2022/09/07 09:55:26;;;;;;;3.80;3.13;;;23.60;99.90;;;;;;5075363;28;20205;-82
2022/09/07 09:57:57;;;;;;;4.85;3.10;;;23.70;99.90;;;;;;5074597;28;20244;-81
2022/09/07 10:00:26;;;;;;;4.75;2.92;;;23.80;99.90;;;;;;5074507;28;20197;-82
2022/09/07 10:03:02;;;;;;;4.55;3.15;;;24.00;99.90;;;;;;5075254;28;20201;-80
2022/09/07 10:05:33;;;;;;;3.08;2.50;;;24.10;99.90;;;;;;5074112;28;20643;-81
2022/09/07 10:08:00;;;;;;;4.15;2.65;;;24.00;99.90;;;;;;5054656;28;20621;-78
2022/09/07 10:10:28;;;;;;;4.25;2.42;;;24.00;99.90;;;;;;5057727;28;20202;-81
2022/09/07 10:12:56;;;;;;;4.40;2.20;;;24.10;99.90;;;;;;5068707;28;20284;-81
2022/09/07 10:15:34;;;;;;;5.25;2.10;;;24.10;99.90;;;;;;5065117;28;20201;-80
2022/09/07 10:18:04;;;;;;;4.82;2.13;;;24.30;99.90;;;;;;5070827;28;20542;-81
2022/09/07 10:20:34;;;;;;;6.75;2.28;;;24.40;99.90;;;;;;5071029;28;20276;-82
2022/09/07 10:23:02;;;;;;;6.05;1.90;;;24.40;99.90;;;;;;5072296;28;20197;-80
2022/09/07 10:25:32;;;;;;;5.80;2.35;;;24.50;99.90;;;;;;5071324;28;20205;-81
2022/09/07 10:28:06;;;;;;;4.10;2.33;;;24.50;99.90;;;;;;5073916;28;20213;-81
2022/09/07 10:30:41;;;;;;;6.20;2.63;;;24.60;99.90;;;;;;5072277;28;20353;-80
2022/09/07 10:33:16;;;;;;;6.50;2.58;;;24.70;99.90;;;;;;5073872;28;20193;-80
2022/09/07 10:35:53;;;;;;;5.68;2.35;;;24.90;99.90;;;;;;5072205;28;20207;-79
2022/09/07 10:38:21;;;;;;;6.10;2.10;;;25.00;99.90;;;;;;5072957;28;20201;-81
2022/09/07 10:40:55;;;;;;;4.43;1.80;;;25.10;99.90;;;;;;5074010;28;20220;-80
2022/09/07 10:43:41;;;;;;;4.53;1.80;;;25.30;99.90;;;;;;5073596;28;20207;-79
2022/09/07 10:46:28;;;;;;;5.57;1.58;;;25.30;99.90;;;;;;5072845;28;20213;-80
2022/09/07 10:49:14;;;;;;;4.88;2.00;;;25.40;99.90;;;;;;5072536;28;20337;-80
2022/09/07 10:51:46;;;;;;;6.38;2.72;;;25.50;99.90;;;;;;5073058;28;20200;-80
2022/09/07 10:54:20;;;;;;;3.28;1.60;;;25.70;99.90;;;;;;5072633;28;20194;-79
2022/09/07 10:56:59;;;;;;;4.82;2.28;;;25.80;99.90;;;;;;5073196;28;20220;-83
2022/09/07 10:59:37;;;;;;;5.35;2.20;;;25.90;99.90;;;;;;5069779;28;20233;-80
2022/09/07 11:02:16;;;;;;;5.60;2.45;;;26.00;99.90;;;;;;5064979;28;20284;-82
2022/09/07 11:04:59;;;;;;;7.10;2.95;;;26.10;99.90;;;;;;5072179;28;20205;-80
2022/09/07 11:07:45;;;;;;;6.05;2.38;;;26.10;99.90;;;;;;5075935;28;20224;-80
2022/09/07 11:10:22;;;;;;;4.25;1.90;;;26.10;99.90;;;;;;5091837;28;20676;-81
2022/09/07 11:12:51;;;;;;;5.30;2.33;;;26.30;99.90;;;;;;5068439;28;20287;-80
2022/09/07 11:15:25;;;;;;;6.65;2.35;;;26.40;99.90;;;;;;5064730;28;20198;-81
2022/09/07 11:17:59;;;;;;;6.22;2.22;;;26.50;99.90;;;;;;5072580;28;20185;-79
2022/09/07 11:20:30;;;;;;;7.22;2.67;;;26.60;99.90;;;;;;5070769;28;20301;-79
2022/09/07 11:23:06;;;;;;;7.03;2.60;;;26.60;99.90;;;;;;5053424;28;20213;-79
2022/09/07 11:25:40;;;;;;;4.57;2.20;;;26.60;99.90;;;;;;5055802;28;20582;-80
2022/09/07 11:28:13;;;;;;;7.22;2.92;;;26.60;99.90;;;;;;5072091;28;20583;-79
2022/09/07 11:30:45;;;;;;;4.22;2.40;;;26.60;99.90;;;;;;5085536;28;20763;-79
2022/09/07 11:33:19;;;;;;;4.78;2.00;;;26.60;99.90;;;;;;5093640;28;20189;-78
2022/09/07 11:35:52;;;;;;;5.22;1.85;;;26.70;99.90;;;;;;5067445;28;20201;-80
2022/09/07 11:38:25;;;;;;;5.85;2.20;;;26.70;99.90;;;;;;5071626;28;20209;-80
2022/09/07 11:41:01;;;;;;;10.35;2.65;;;26.70;99.90;;;;;;5071442;28;20288;-80
2022/09/07 11:43:31;;;;;;;7.25;2.92;;;26.70;99.90;;;;;;5091676;28;20201;-80
2022/09/07 11:46:03;;;;;;;5.68;2.10;;;26.70;99.90;;;;;;5073040;28;20602;-80
2022/09/07 11:48:36;;;;;;;7.65;2.75;;;26.60;99.90;;;;;;5066550;28;20282;-80
2022/09/07 11:51:08;;;;;;;7.43;2.47;;;26.50;99.90;;;;;;5062886;28;20598;-80
2022/09/07 11:53:38;;;;;;;6.40;2.47;;;26.60;99.90;;;;;;5067918;28;20590;-81
2022/09/07 11:56:12;;;;;;;4.55;2.35;;;26.60;99.90;;;;;;5092073;28;20287;-81
2022/09/07 11:59:08;;;;;;;6.82;2.65;;;26.70;99.90;;;;;;5092558;28;20283;-79
2022/09/07 12:01:46;;;;;;;5.63;2.40;;;26.70;99.90;;;;;;5052209;28;20483;-80
2022/09/07 12:04:44;;;;;;;6.05;2.28;;;26.70;99.90;;;;;;5057476;28;20693;-79
2022/09/07 12:07:46;;;;;;;5.68;2.30;;;26.80;99.90;;;;;;5076635;28;20423;-79
2022/09/07 12:10:45;;;;;;;7.07;2.45;;;26.80;99.90;;;;;;5066417;28;20295;-79
2022/09/07 12:13:46;;;;;;;7.50;2.65;;;26.80;99.90;;;;;;5062096;28;20625;-79
2022/09/07 12:16:22;;;;;;;5.38;2.47;;;27.00;99.90;;;;;;5047803;28;20218;-80
2022/09/07 12:19:12;;;;;;;5.95;2.72;;;27.00;99.90;;;;;;5071410;28;20181;-79
2022/09/07 12:21:44;;;;;;;6.45;2.42;;;27.00;99.90;;;;;;5069896;28;20352;-79
2022/09/07 12:24:43;;;;;;;5.70;2.58;;;26.90;99.90;;;;;;5071241;28;20183;-79
2022/09/07 12:27:33;;;;;;;5.50;2.08;;;26.90;99.90;;;;;;5015879;28;20235;-79
2022/09/07 12:30:33;;;;;;;6.82;2.40;;;26.80;99.90;;;;;;5066178;28;20727;-80
2022/09/07 12:33:18;;;;;;;5.78;2.47;;;26.90;99.90;;;;;;5068181;28;20322;-80
2022/09/07 12:35:45;;;;;;;6.00;2.08;;;26.90;99.90;;;;;;5071212;28;20197;-79
2022/09/07 12:39:00;;;;;;;7.82;2.83;;;26.80;99.90;;;;;;5070363;28;20232;-80
2022/09/07 12:41:44;;;;;;;5.90;2.50;;;26.70;99.90;;;;;;5029479;28;20800;-80
2022/09/07 12:44:20;;;;;;;6.55;2.25;;;26.70;99.90;;;;;;5071706;28;20247;-79
2022/09/07 12:46:50;;;;;;;7.18;2.63;;;26.60;99.90;;;;;;5070519;28;20204;-80
2022/09/07 12:49:43;;;;;;;6.05;2.35;;;26.50;99.90;;;;;;5071198;28;20198;-78
2022/09/07 12:52:28;;;;;;;5.50;2.05;;;26.50;99.90;;;;;;5069635;28;20216;-81
2022/09/07 12:55:02;;;;;;;6.70;2.22;;;26.60;99.90;;;;;;5070352;28;20637;-79
2022/09/07 12:57:36;;;;;;;6.07;2.17;;;26.70;99.90;;;;;;5071012;28;20225;-79
2022/09/07 13:00:14;;;;;;;8.63;2.88;;;26.80;99.90;;;;;;5070173;28;20629;-79
2022/09/07 13:03:01;;;;;;;4.70;2.25;;;26.80;99.90;;;;;;5071763;28;20189;-81
2022/09/07 13:05:44;;;;;;;7.07;1.83;;;26.80;99.90;;;;;;5071116;28;20201;-79
2022/09/07 13:08:28;;;;;;;6.82;2.42;;;26.80;99.90;;;;;;5070833;28;20213;-80
2022/09/07 13:10:54;;;;;;;5.22;2.20;;;26.70;99.90;;;;;;5071865;28;20208;-79
2022/09/07 13:13:27;;;;;;;6.35;2.42;;;26.60;99.90;;;;;;5070359;28;20213;-79